Alyeska Resort
Max's Hourly Weather Roundup
ALYESKA_MAX 3/1/2015
Click Here for Graph

        DATE  TIME   Air  Wind  Wind  Wind  BATT   Rel
                    Temp   Spd   Dir  Gust  Volt  Hum%
                      F   MPH   AVG   MPH   AVG   AVG

    3/1/2015 03:00    24     3   204     5 12.82   100
    3/1/2015 02:00    24     2   250     6 12.84   100
    3/1/2015 01:00    25     4   256     7 12.86   100
   2/28/2015 24:00    26     2   228     6 12.88   100
   2/28/2015 23:00    26     6   240    11 12.90   100
   2/28/2015 22:00    26    10   248    15 12.93   100
   2/28/2015 21:00    26    14   259    20 12.96   100
   2/28/2015 20:00    26    12   258    24 13.01   100
   2/28/2015 19:00    24     3   137     7 13.10    99
   2/28/2015 18:00    24     6   129    12 13.36    96
   2/28/2015 17:00    24     2    95     5 13.68    94
   2/28/2015 16:00    26     3   123     7 13.78    85
   2/28/2015 15:00    26     3   153     6 13.80    80
   2/28/2015 14:00    27     2   158     5 13.76    72
   2/28/2015 13:00    28     3    74     7 13.79    64
   2/28/2015 12:00    27     4    51    10 13.93    63
   2/28/2015 11:00    27     4   126     8 13.50    60
   2/28/2015 10:00    27     5    79    10 12.97    58
   2/28/2015 09:00    26     1   103     5 12.79    60
   2/28/2015 08:00    26     2   159     6 12.78    60
   2/28/2015 07:00    28     2    90     6 12.79    53
   2/28/2015 06:00    27     2   124     5 12.80    54
   2/28/2015 05:00    28     3   267     4 12.81    53
   2/28/2015 04:00    29     3    94    12 12.82    48


Click Here for Graph